createdAt,value
2023-07-10T00:01:16.292Z,100.00
2023-07-10T00:03:42.855Z,100.00
2023-07-10T00:06:12.400Z,100.00
2023-07-10T00:08:40.047Z,100.00
2023-07-10T00:11:33.412Z,100.00
2023-07-10T00:14:00.112Z,100.00
2023-07-10T00:16:28.261Z,100.00
2023-07-10T00:18:55.514Z,100.00
2023-07-10T00:21:22.039Z,100.00
2023-07-10T00:23:48.640Z,100.00
2023-07-10T00:26:27.159Z,100.00
2023-07-10T00:28:57.416Z,100.00
2023-07-10T00:31:26.183Z,100.00
2023-07-10T00:33:53.439Z,100.00
2023-07-10T00:36:28.122Z,100.00
2023-07-10T00:38:54.961Z,100.00
2023-07-10T00:41:25.252Z,100.00
2023-07-10T00:43:59.201Z,100.00
2023-07-10T00:46:40.170Z,100.00
2023-07-10T00:49:17.216Z,100.00
2023-07-10T00:51:56.301Z,100.00
2023-07-10T00:54:31.287Z,100.00
2023-07-10T00:56:58.879Z,100.00
2023-07-10T00:59:28.567Z,100.00
2023-07-10T01:02:08.039Z,100.00
2023-07-10T01:04:41.026Z,100.00
2023-07-10T01:07:10.808Z,100.00
2023-07-10T01:09:37.988Z,100.00
2023-07-10T01:12:07.077Z,100.00
2023-07-10T01:14:35.988Z,100.00
2023-07-10T01:17:05.054Z,100.00
2023-07-10T01:19:32.284Z,100.00
2023-07-10T01:21:59.472Z,100.00
2023-07-10T01:24:26.256Z,100.00
2023-07-10T01:26:54.586Z,100.00
2023-07-10T01:29:25.546Z,100.00
2023-07-10T01:31:54.754Z,100.00
2023-07-10T01:34:25.037Z,100.00
2023-07-10T01:36:52.066Z,100.00
2023-07-10T01:39:33.288Z,100.00
2023-07-10T01:41:59.778Z,100.00
2023-07-10T01:44:35.720Z,100.00
2023-07-10T01:47:05.142Z,100.00
2023-07-10T01:49:43.959Z,100.00
2023-07-10T01:52:12.924Z,100.00
2023-07-10T01:54:40.056Z,100.00
2023-07-10T01:57:11.242Z,100.00
2023-07-10T01:59:38.558Z,100.00
2023-07-10T02:02:05.864Z,100.00
2023-07-10T02:04:32.558Z,100.00
2023-07-10T02:06:59.141Z,100.00
2023-07-10T02:09:27.733Z,100.00
2023-07-10T02:11:55.161Z,100.00
2023-07-10T02:14:22.418Z,100.00
2023-07-10T02:16:49.991Z,100.00
2023-07-10T02:19:16.833Z,100.00
2023-07-10T02:21:43.349Z,100.00
2023-07-10T02:24:10.104Z,100.00
2023-07-10T02:26:36.611Z,100.00
2023-07-10T02:29:04.138Z,100.00
2023-07-10T02:31:31.461Z,100.00
2023-07-10T02:33:58.394Z,100.00
2023-07-10T02:36:26.412Z,100.00
2023-07-10T02:38:52.873Z,100.00
2023-07-10T02:41:19.376Z,100.00
2023-07-10T02:43:45.960Z,100.00
2023-07-10T02:46:12.461Z,100.00
2023-07-10T02:48:39.024Z,100.00
2023-07-10T02:51:05.501Z,100.00
2023-07-10T02:53:33.190Z,100.00
2023-07-10T02:56:00.067Z,100.00
2023-07-10T02:58:26.543Z,100.00
2023-07-10T03:01:02.026Z,100.00
2023-07-10T03:03:28.995Z,100.00
2023-07-10T03:06:01.836Z,100.00
2023-07-10T03:08:30.316Z,100.00
2023-07-10T03:11:05.613Z,100.00
2023-07-10T03:13:32.464Z,100.00
2023-07-10T03:16:08.790Z,100.00
2023-07-10T03:18:36.302Z,100.00
2023-07-10T03:21:03.526Z,100.00
2023-07-10T03:23:30.041Z,100.00
2023-07-10T03:25:56.686Z,100.00
2023-07-10T03:28:23.589Z,100.00
2023-07-10T03:30:50.575Z,100.00
2023-07-10T03:33:18.734Z,100.00
2023-07-10T03:35:49.976Z,100.00
2023-07-10T03:38:17.641Z,100.00
2023-07-10T03:40:52.318Z,100.00
2023-07-10T03:43:19.165Z,100.00
2023-07-10T03:45:45.685Z,100.00
2023-07-10T03:48:12.293Z,100.00
2023-07-10T03:50:39.146Z,100.00
2023-07-10T03:53:06.081Z,100.00
2023-07-10T03:55:32.628Z,100.00
2023-07-10T03:57:59.104Z,100.00
2023-07-10T04:00:25.623Z,100.00
2023-07-10T04:02:52.236Z,100.00
2023-07-10T04:05:18.841Z,100.00
2023-07-10T04:07:45.383Z,100.00
2023-07-10T04:10:11.889Z,100.00
2023-07-10T04:12:42.015Z,100.00
2023-07-10T04:15:09.011Z,100.00
2023-07-10T04:17:36.451Z,100.00
2023-07-10T04:20:04.108Z,100.00
2023-07-10T04:22:30.615Z,100.00
2023-07-10T04:25:05.210Z,100.00
2023-07-10T04:27:31.777Z,100.00
2023-07-10T04:29:58.309Z,100.00
2023-07-10T04:32:24.834Z,100.00
2023-07-10T04:34:51.631Z,100.00
2023-07-10T04:37:18.158Z,100.00
2023-07-10T04:39:46.255Z,100.00
2023-07-10T04:42:13.049Z,100.00
2023-07-10T04:44:39.553Z,100.00
2023-07-10T04:47:06.666Z,100.00
2023-07-10T04:49:33.450Z,100.00
2023-07-10T04:51:59.952Z,100.00
2023-07-10T04:54:26.473Z,100.00
2023-07-10T04:56:53.661Z,100.00
2023-07-10T04:59:20.289Z,100.00
2023-07-10T05:01:46.852Z,100.00
2023-07-10T05:04:13.468Z,100.00
2023-07-10T05:06:39.998Z,100.00
2023-07-10T05:09:06.680Z,100.00
2023-07-10T05:11:33.242Z,100.00
2023-07-10T05:13:59.910Z,100.00
2023-07-10T05:16:27.059Z,100.00
2023-07-10T05:18:53.724Z,100.00
2023-07-10T05:21:20.437Z,100.00
2023-07-10T05:23:46.965Z,100.00
2023-07-10T05:26:16.586Z,100.00
2023-07-10T05:28:43.407Z,100.00
2023-07-10T05:31:11.951Z,100.00
2023-07-10T05:33:40.211Z,100.00
2023-07-10T05:36:11.260Z,100.00
2023-07-10T05:38:38.087Z,100.00
2023-07-10T05:41:05.270Z,100.00
2023-07-10T05:43:33.696Z,100.00
2023-07-10T05:46:00.564Z,100.00
2023-07-10T05:48:28.154Z,100.00
2023-07-10T05:50:54.828Z,100.00
2023-07-10T05:53:21.922Z,100.00
2023-07-10T05:55:54.271Z,100.00
2023-07-10T05:58:23.679Z,100.00
2023-07-10T06:00:53.980Z,100.00
2023-07-10T06:03:20.595Z,100.00
2023-07-10T06:05:59.709Z,100.00
2023-07-10T06:08:27.791Z,100.00
2023-07-10T06:10:54.526Z,100.00
2023-07-10T06:13:21.581Z,100.00
2023-07-10T06:15:50.618Z,100.00
2023-07-10T06:18:18.034Z,100.00
2023-07-10T06:20:44.993Z,100.00
2023-07-10T06:23:11.510Z,100.00
2023-07-10T06:25:45.030Z,100.00
2023-07-10T06:28:12.829Z,100.00
2023-07-10T06:30:41.525Z,100.00
2023-07-10T06:33:08.214Z,100.00
2023-07-10T06:35:34.848Z,100.00
2023-07-10T06:38:01.327Z,100.00
2023-07-10T06:40:27.921Z,100.00
2023-07-10T06:42:54.466Z,100.00
2023-07-10T06:45:21.009Z,100.00
2023-07-10T06:47:48.324Z,100.00
2023-07-10T06:50:15.747Z,100.00
2023-07-10T06:52:44.505Z,100.00
2023-07-10T06:55:16.906Z,100.00
2023-07-10T06:57:43.942Z,100.00
2023-07-10T07:00:13.670Z,100.00
2023-07-10T07:02:40.488Z,100.00
2023-07-10T07:05:08.646Z,100.00
2023-07-10T07:07:47.537Z,100.00
2023-07-10T07:10:34.047Z,100.00
2023-07-10T07:13:00.867Z,100.00
2023-07-10T07:15:27.391Z,100.00
2023-07-10T07:17:54.266Z,100.00
2023-07-10T07:20:20.803Z,100.00
2023-07-10T07:22:47.347Z,100.00
2023-07-10T07:25:13.850Z,100.00
2023-07-10T07:27:40.497Z,100.00
2023-07-10T07:30:07.699Z,100.00
2023-07-10T07:32:34.454Z,100.00
2023-07-10T07:35:01.006Z,100.00
2023-07-10T07:37:27.599Z,100.00
2023-07-10T07:40:07.623Z,100.00
2023-07-10T07:42:34.115Z,100.00
2023-07-10T07:45:00.755Z,100.00
2023-07-10T07:47:28.700Z,100.00
2023-07-10T07:49:55.743Z,100.00
2023-07-10T07:52:22.459Z,100.00
2023-07-10T07:54:49.849Z,100.00
2023-07-10T07:57:16.360Z,100.00
2023-07-10T07:59:42.890Z,100.00
2023-07-10T08:02:10.416Z,100.00
2023-07-10T08:04:37.366Z,100.00
2023-07-10T08:07:04.102Z,100.00
2023-07-10T08:09:30.605Z,100.00
2023-07-10T08:11:57.114Z,100.00
2023-07-10T08:14:23.600Z,100.00
2023-07-10T08:16:52.445Z,100.00
2023-07-10T08:19:19.337Z,100.00
2023-07-10T08:21:47.947Z,100.00
2023-07-10T08:24:14.662Z,100.00
2023-07-10T08:26:41.172Z,100.00
2023-07-10T08:29:30.588Z,100.00
2023-07-10T08:31:59.748Z,100.00
2023-07-10T08:34:28.463Z,100.00
2023-07-10T08:36:55.628Z,100.00
2023-07-10T08:39:23.962Z,100.00
2023-07-10T08:42:02.212Z,100.00
2023-07-10T08:44:37.676Z,100.00
2023-07-10T08:47:16.650Z,100.00
2023-07-10T08:49:55.686Z,100.00
2023-07-10T08:52:38.431Z,100.00
2023-07-10T08:55:11.644Z,100.00
2023-07-10T08:57:45.585Z,100.00
2023-07-10T09:00:16.011Z,100.00
2023-07-10T09:03:11.873Z,100.00
2023-07-10T09:05:41.025Z,100.00
2023-07-10T09:08:13.070Z,100.00
2023-07-10T09:10:41.292Z,100.00
2023-07-10T09:13:14.302Z,100.00
2023-07-10T09:15:48.897Z,100.00
2023-07-10T09:18:22.701Z,100.00
2023-07-10T09:20:59.392Z,100.00
2023-07-10T09:23:34.952Z,100.00
2023-07-10T09:26:14.130Z,100.00
2023-07-10T09:28:42.249Z,100.00
2023-07-10T09:31:50.647Z,100.00
2023-07-10T09:34:22.910Z,99.86
2023-07-10T09:36:53.464Z,98.51
2023-07-10T09:39:20.431Z,96.32
2023-07-10T09:41:48.713Z,91.78
2023-07-10T09:44:21.574Z,92.34
2023-07-10T09:46:51.531Z,94.29
2023-07-10T09:49:21.747Z,88.36
2023-07-10T09:52:00.469Z,87.47
2023-07-10T09:54:39.716Z,87.40
2023-07-10T09:57:18.016Z,86.06
2023-07-10T10:00:04.361Z,84.31
2023-07-10T10:02:46.862Z,86.34
2023-07-10T10:05:13.481Z,85.76
2023-07-10T10:07:42.937Z,84.35
2023-07-10T10:10:23.936Z,83.29
2023-07-10T10:13:02.206Z,82.34
2023-07-10T10:15:47.524Z,79.80
2023-07-10T10:18:52.425Z,79.19
2023-07-10T10:21:20.872Z,80.14
2023-07-10T10:23:50.522Z,79.71
2023-07-10T10:26:42.286Z,77.44
2023-07-10T10:29:36.699Z,77.89
2023-07-10T10:32:27.107Z,79.10
2023-07-10T10:35:01.701Z,76.48
2023-07-10T10:37:31.204Z,76.02
2023-07-10T10:40:10.409Z,77.59
2023-07-10T10:42:57.211Z,77.54
2023-07-10T10:45:34.959Z,76.93
2023-07-10T10:48:16.710Z,76.61
2023-07-10T10:51:12.629Z,76.54
2023-07-10T10:53:45.359Z,75.88
2023-07-10T10:56:26.476Z,76.43
2023-07-10T10:59:02.307Z,75.06
2023-07-10T11:01:37.095Z,77.05
2023-07-10T11:04:22.499Z,77.53
2023-07-10T11:06:50.829Z,79.51
2023-07-10T11:09:30.536Z,77.89
2023-07-10T11:11:59.959Z,76.58
2023-07-10T11:14:28.544Z,79.26
2023-07-10T11:16:58.804Z,75.12
2023-07-10T11:19:29.886Z,75.61
2023-07-10T11:21:57.207Z,76.38
2023-07-10T11:24:26.665Z,75.53
2023-07-10T11:26:58.832Z,76.36
2023-07-10T11:29:37.896Z,76.74
2023-07-10T11:32:21.244Z,78.09
2023-07-10T11:34:52.072Z,77.96
2023-07-10T11:37:47.154Z,75.87
2023-07-10T11:40:28.742Z,76.31
2023-07-10T11:43:20.192Z,76.86
2023-07-10T11:45:52.990Z,78.14
2023-07-10T11:48:43.918Z,75.60
2023-07-10T11:51:30.893Z,77.47
2023-07-10T11:54:06.552Z,77.08
2023-07-10T11:56:34.537Z,75.38
2023-07-10T11:59:15.899Z,75.85
2023-07-10T12:01:43.255Z,74.87
2023-07-10T12:04:16.856Z,74.36
2023-07-10T12:06:47.296Z,72.72
2023-07-10T12:09:13.811Z,71.60
2023-07-10T12:11:41.219Z,73.11
2023-07-10T12:14:13.457Z,74.54
2023-07-10T12:17:10.983Z,74.06
2023-07-10T12:19:39.197Z,72.77
2023-07-10T12:22:26.629Z,73.91
2023-07-10T12:25:01.113Z,69.36
2023-07-10T12:30:15.286Z,64.04
2023-07-10T12:32:41.920Z,61.06
2023-07-10T12:35:27.413Z,61.41
2023-07-10T12:37:54.196Z,61.52
2023-07-10T12:40:20.809Z,64.10
2023-07-10T12:42:48.834Z,63.83
2023-07-10T12:45:34.166Z,65.48
2023-07-10T12:48:15.456Z,65.13
2023-07-10T12:50:50.974Z,63.57
2023-07-10T12:53:21.335Z,59.39
2023-07-10T12:56:06.780Z,59.62
2023-07-10T12:58:35.202Z,61.20
2023-07-10T13:01:18.170Z,62.20
2023-07-10T13:03:45.170Z,64.15
2023-07-10T13:06:18.622Z,63.66
2023-07-10T13:08:48.250Z,61.24
2023-07-10T13:11:35.839Z,57.59
2023-07-10T13:16:44.667Z,60.72
2023-07-10T13:19:11.187Z,57.33
2023-07-10T13:21:37.723Z,58.87
2023-07-10T13:24:04.518Z,60.62
2023-07-10T13:26:31.101Z,61.75
2023-07-10T13:28:57.655Z,60.30
2023-07-10T13:31:26.345Z,62.10
2023-07-10T13:33:53.028Z,56.84
2023-07-10T13:36:21.906Z,57.22
2023-07-10T13:38:49.190Z,60.12
2023-07-10T13:41:21.589Z,61.88
2023-07-10T13:43:48.951Z,59.88
2023-07-10T13:46:28.508Z,58.41
2023-07-10T13:48:58.291Z,58.89
2023-07-10T13:51:28.393Z,59.61
2023-07-10T13:53:55.917Z,62.24
2023-07-10T13:56:25.796Z,61.01
2023-07-10T13:58:53.748Z,62.45
2023-07-10T14:01:21.668Z,62.92
2023-07-10T14:03:48.817Z,61.66
2023-07-10T14:06:40.573Z,61.23
2023-07-10T14:09:12.578Z,61.83
2023-07-10T14:11:39.382Z,59.50
2023-07-10T14:14:05.919Z,57.55
2023-07-10T14:16:32.866Z,58.08
2023-07-10T14:19:00.145Z,56.72
2023-07-10T14:21:26.845Z,59.63
2023-07-10T14:23:53.349Z,58.20
2023-07-10T14:26:24.102Z,56.56
2023-07-10T14:28:51.702Z,56.00
2023-07-10T14:31:18.302Z,55.23
2023-07-10T14:33:44.995Z,55.91
2023-07-10T14:36:14.780Z,55.20
2023-07-10T14:38:41.879Z,55.18
2023-07-10T14:41:12.949Z,55.09
2023-07-10T14:43:41.753Z,56.03
2023-07-10T14:46:17.241Z,55.08
2023-07-10T14:48:45.581Z,55.57
2023-07-10T14:51:12.479Z,53.30
2023-07-10T14:53:39.394Z,53.31
2023-07-10T14:56:13.543Z,52.20
2023-07-10T14:58:40.587Z,52.61
2023-07-10T15:01:18.423Z,51.88
2023-07-10T15:03:47.093Z,52.96
2023-07-10T15:06:39.701Z,55.01
2023-07-10T15:09:08.349Z,53.84
2023-07-10T15:11:34.907Z,53.06
2023-07-10T15:14:01.507Z,54.66
2023-07-10T15:16:28.305Z,54.51
2023-07-10T15:18:54.907Z,56.55
2023-07-10T15:21:29.309Z,55.76
2023-07-10T15:23:55.865Z,56.60
2023-07-10T15:26:22.348Z,55.27
2023-07-10T15:28:48.838Z,54.75
2023-07-10T15:31:15.785Z,55.27
2023-07-10T15:33:44.244Z,55.10
2023-07-10T15:36:19.049Z,56.62
2023-07-10T15:38:46.268Z,55.35
2023-07-10T15:41:22.767Z,53.93
2023-07-10T15:43:49.376Z,56.43
2023-07-10T15:46:16.011Z,53.62
2023-07-10T15:48:42.998Z,54.43
2023-07-10T15:51:22.640Z,55.40
2023-07-10T15:53:49.363Z,55.96
2023-07-10T15:56:15.908Z,56.09
2023-07-10T15:58:43.012Z,55.08
2023-07-10T16:01:16.680Z,54.81
2023-07-10T16:03:43.868Z,53.20
2023-07-10T16:06:10.693Z,53.18
2023-07-10T16:08:39.194Z,55.37
2023-07-10T16:11:19.371Z,52.94
2023-07-10T16:13:48.849Z,52.89
2023-07-10T16:16:15.975Z,53.68
2023-07-10T17:40:12.967Z,69.02
2023-07-10T17:42:39.520Z,68.41
2023-07-10T17:45:14.413Z,58.03
2023-07-10T17:47:40.960Z,61.53
2023-07-10T17:50:12.640Z,63.34
2023-07-10T17:52:39.396Z,64.82
2023-07-10T17:55:06.498Z,59.58
2023-07-10T17:57:33.036Z,65.48
2023-07-10T17:59:59.541Z,66.74
2023-07-10T18:02:33.755Z,66.78
2023-07-10T18:05:00.499Z,57.06
2023-07-10T18:07:27.061Z,66.32
2023-07-10T18:09:53.754Z,63.82
2023-07-10T18:12:20.860Z,65.15
2023-07-10T18:14:48.534Z,72.05
2023-07-10T18:17:20.594Z,73.04
2023-07-10T18:19:50.962Z,73.53
2023-07-10T18:22:18.188Z,65.54
2023-07-10T18:24:45.061Z,64.06
2023-07-10T18:27:25.086Z,64.17
2023-07-10T18:29:51.564Z,68.71
2023-07-10T18:32:21.374Z,65.56
2023-07-10T18:34:50.575Z,67.29
2023-07-10T18:37:19.618Z,69.56
2023-07-10T18:39:46.313Z,68.02
2023-07-10T18:42:29.090Z,71.90
2023-07-10T18:44:57.042Z,70.92
2023-07-10T18:47:23.888Z,75.26
2023-07-10T18:49:50.477Z,77.99
2023-07-10T18:52:30.165Z,78.26
2023-07-10T18:54:56.846Z,79.06
2023-07-10T18:57:23.427Z,77.40
2023-07-10T18:59:49.919Z,78.43
2023-07-10T19:02:16.612Z,76.01
2023-07-10T19:04:43.223Z,79.37
2023-07-10T19:07:15.471Z,81.92
2023-07-10T19:09:44.804Z,81.34
2023-07-10T19:12:16.395Z,84.55
2023-07-10T19:14:44.273Z,87.87
2023-07-10T19:17:20.575Z,90.06
2023-07-10T19:19:52.586Z,91.26
2023-07-10T19:22:19.718Z,91.67
2023-07-10T19:24:46.757Z,89.92
2023-07-10T19:27:13.284Z,91.21
2023-07-10T19:29:40.569Z,90.63
2023-07-10T19:32:22.086Z,92.53
2023-07-10T19:34:50.091Z,91.45
2023-07-10T19:37:16.795Z,95.00
2023-07-10T19:39:44.867Z,95.37
2023-07-10T19:42:11.369Z,98.44
2023-07-10T19:44:56.764Z,95.78
2023-07-10T19:47:25.808Z,95.17
2023-07-10T19:49:54.566Z,96.50
2023-07-10T19:52:21.387Z,96.56
2023-07-10T19:54:49.283Z,95.37
2023-07-10T19:57:29.323Z,94.92
2023-07-10T19:59:55.887Z,94.53
2023-07-10T20:02:22.894Z,92.09
2023-07-10T20:04:49.563Z,89.12
2023-07-10T20:07:18.005Z,90.12
2023-07-10T20:09:45.077Z,92.21
2023-07-10T20:12:18.348Z,98.78
2023-07-10T20:14:44.976Z,100.00
2023-07-10T20:17:34.032Z,100.00
2023-07-10T20:20:02.369Z,100.00
2023-07-10T20:22:28.858Z,100.00
2023-07-10T20:24:55.489Z,100.00
2023-07-10T20:27:22.241Z,100.00
2023-07-10T20:29:48.735Z,100.00
2023-07-10T20:32:15.221Z,100.00
2023-07-10T20:34:48.808Z,100.00
2023-07-10T20:37:19.066Z,100.00
2023-07-10T20:39:45.717Z,100.00
2023-07-10T20:42:13.670Z,100.00
2023-07-10T20:44:40.537Z,100.00
2023-07-10T20:47:15.116Z,100.00
2023-07-10T20:49:41.662Z,100.00
2023-07-10T20:52:15.281Z,100.00
2023-07-10T20:54:42.313Z,100.00
2023-07-10T20:57:13.345Z,100.00
2023-07-10T20:59:40.294Z,100.00
2023-07-10T21:02:20.889Z,100.00
2023-07-10T21:04:47.613Z,100.00
2023-07-10T21:07:19.771Z,100.00
2023-07-10T21:09:50.060Z,100.00
2023-07-10T21:12:18.868Z,100.00
2023-07-10T21:14:46.202Z,100.00
2023-07-10T21:17:23.157Z,100.00
2023-07-10T21:19:49.785Z,100.00
2023-07-10T21:22:19.504Z,100.00
2023-07-10T21:24:48.604Z,100.00
2023-07-10T21:27:18.882Z,100.00
2023-07-10T21:29:46.211Z,100.00
2023-07-10T21:32:19.471Z,100.00
2023-07-10T21:34:46.391Z,100.00
2023-07-10T21:37:12.973Z,100.00
2023-07-10T21:39:39.485Z,100.00
2023-07-10T21:42:06.513Z,100.00
2023-07-10T21:44:33.151Z,100.00
2023-07-10T21:46:59.764Z,100.00
2023-07-10T21:49:26.311Z,100.00
2023-07-10T21:51:52.853Z,100.00
2023-07-10T21:54:19.318Z,100.00
2023-07-10T21:56:46.878Z,100.00
2023-07-10T21:59:21.737Z,100.00
2023-07-10T22:01:50.065Z,100.00
2023-07-10T22:04:17.882Z,100.00
2023-07-10T22:06:46.236Z,100.00
2023-07-10T22:09:14.434Z,100.00
2023-07-10T22:11:43.231Z,100.00
2023-07-10T22:14:14.879Z,100.00
2023-07-10T22:16:43.641Z,100.00
2023-07-10T22:19:10.543Z,100.00
2023-07-10T22:21:37.578Z,100.00
2023-07-10T22:24:04.936Z,100.00
2023-07-10T22:26:31.507Z,100.00
2023-07-10T22:28:58.288Z,100.00
2023-07-10T22:31:27.354Z,100.00
2023-07-10T22:33:56.338Z,100.00
2023-07-10T22:36:23.358Z,100.00
2023-07-10T22:38:50.043Z,100.00
2023-07-10T22:41:27.562Z,100.00
2023-07-10T22:43:59.649Z,100.00
2023-07-10T22:46:32.465Z,100.00
2023-07-10T22:49:00.423Z,100.00
2023-07-10T22:51:30.920Z,100.00
2023-07-10T22:53:58.173Z,100.00
2023-07-10T22:56:27.655Z,100.00
2023-07-10T22:58:54.584Z,100.00
2023-07-10T23:01:22.622Z,100.00
2023-07-10T23:03:51.334Z,100.00
2023-07-10T23:06:23.359Z,100.00
2023-07-10T23:08:51.162Z,100.00
2023-07-10T23:11:18.100Z,100.00
2023-07-10T23:13:45.290Z,100.00
2023-07-10T23:16:17.259Z,100.00
2023-07-10T23:18:52.472Z,100.00
2023-07-10T23:21:21.238Z,100.00
2023-07-10T23:23:47.809Z,100.00
2023-07-10T23:26:16.328Z,100.00
2023-07-10T23:28:43.132Z,100.00
2023-07-10T23:31:25.971Z,100.00
2023-07-10T23:33:52.872Z,100.00
2023-07-10T23:36:21.326Z,100.00
2023-07-10T23:38:48.256Z,100.00
2023-07-10T23:41:16.197Z,100.00
2023-07-10T23:43:43.158Z,100.00
2023-07-10T23:46:10.599Z,100.00
2023-07-10T23:48:37.467Z,100.00
2023-07-10T23:51:04.269Z,100.00
2023-07-10T23:53:31.699Z,100.00
2023-07-10T23:55:58.574Z,100.00
2023-07-10T23:58:25.432Z,100.00
